sensor_id;sensor_type;location;lat;lon;timestamp;temperature;humidity
15749;DHT22;7976;52.526;13.326;2023-10-13T00:00:26;14.40;99.90
15749;DHT22;7976;52.526;13.326;2023-10-13T00:02:56;14.40;99.90
15749;DHT22;7976;52.526;13.326;2023-10-13T00:05:27;14.40;99.90
15749;DHT22;7976;52.526;13.326;2023-10-13T00:07:56;14.40;99.90
15749;DHT22;7976;52.526;13.326;2023-10-13T00:10:28;14.40;99.90
15749;DHT22;7976;52.526;13.326;2023-10-13T00:12:55;14.40;99.90
15749;DHT22;7976;52.526;13.326;2023-10-13T00:15:31;14.40;99.90
15749;DHT22;7976;52.526;13.326;2023-10-13T00:18:04;14.40;99.90
15749;DHT22;7976;52.526;13.326;2023-10-13T00:20:39;14.40;99.90
15749;DHT22;7976;52.526;13.326;2023-10-13T00:23:13;14.40;99.90
15749;DHT22;7976;52.526;13.326;2023-10-13T00:25:43;14.40;99.90
15749;DHT22;7976;52.526;13.326;2023-10-13T00:28:15;14.40;99.90
15749;DHT22;7976;52.526;13.326;2023-10-13T00:30:49;14.30;99.90
15749;DHT22;7976;52.526;13.326;2023-10-13T00:33:18;14.40;99.90
15749;DHT22;7976;52.526;13.326;2023-10-13T00:35:45;14.40;99.90
15749;DHT22;7976;52.526;13.326;2023-10-13T00:38:17;14.40;99.90
15749;DHT22;7976;52.526;13.326;2023-10-13T00:40:46;14.40;99.90
15749;DHT22;7976;52.526;13.326;2023-10-13T00:43:20;14.30;99.90
15749;DHT22;7976;52.526;13.326;2023-10-13T00:46:02;14.40;99.90
15749;DHT22;7976;52.526;13.326;2023-10-13T00:48:36;14.40;99.90
15749;DHT22;7976;52.526;13.326;2023-10-13T00:51:10;14.40;99.90
15749;DHT22;7976;52.526;13.326;2023-10-13T00:53:47;14.40;99.90
15749;DHT22;7976;52.526;13.326;2023-10-13T00:56:17;14.40;99.90
15749;DHT22;7976;52.526;13.326;2023-10-13T00:58:47;14.40;99.90
15749;DHT22;7976;52.526;13.326;2023-10-13T01:01:16;14.30;99.90
15749;DHT22;7976;52.526;13.326;2023-10-13T01:03:56;14.30;99.90
15749;DHT22;7976;52.526;13.326;2023-10-13T01:06:25;14.30;99.90
15749;DHT22;7976;52.526;13.326;2023-10-13T01:08:58;14.30;99.90
15749;DHT22;7976;52.526;13.326;2023-10-13T01:11:27;14.30;99.90
15749;DHT22;7976;52.526;13.326;2023-10-13T01:13:55;14.30;99.90
15749;DHT22;7976;52.526;13.326;2023-10-13T01:16:22;14.40;99.90
15749;DHT22;7976;52.526;13.326;2023-10-13T01:18:52;14.40;99.90
15749;DHT22;7976;52.526;13.326;2023-10-13T01:21:18;14.40;99.90
15749;DHT22;7976;52.526;13.326;2023-10-13T01:23:48;14.40;99.90
15749;DHT22;7976;52.526;13.326;2023-10-13T01:26:16;14.40;99.90
15749;DHT22;7976;52.526;13.326;2023-10-13T01:28:49;14.40;99.90
15749;DHT22;7976;52.526;13.326;2023-10-13T01:31:17;14.40;99.90
15749;DHT22;7976;52.526;13.326;2023-10-13T01:33:56;14.40;99.90
15749;DHT22;7976;52.526;13.326;2023-10-13T01:36:24;14.40;99.90
15749;DHT22;7976;52.526;13.326;2023-10-13T01:38:54;14.40;99.90
15749;DHT22;7976;52.526;13.326;2023-10-13T01:41:21;14.40;99.90
15749;DHT22;7976;52.526;13.326;2023-10-13T01:43:48;14.40;99.90
15749;DHT22;7976;52.526;13.326;2023-10-13T01:46:15;14.40;99.90
15749;DHT22;7976;52.526;13.326;2023-10-13T01:48:45;14.40;99.90
15749;DHT22;7976;52.526;13.326;2023-10-13T01:51:12;14.40;99.90
15749;DHT22;7976;52.526;13.326;2023-10-13T01:53:40;14.40;99.90
15749;DHT22;7976;52.526;13.326;2023-10-13T01:56:09;14.40;99.90
15749;DHT22;7976;52.526;13.326;2023-10-13T01:58:40;14.40;99.90
15749;DHT22;7976;52.526;13.326;2023-10-13T02:01:08;14.40;99.90
15749;DHT22;7976;52.526;13.326;2023-10-13T02:03:36;14.40;99.90
15749;DHT22;7976;52.526;13.326;2023-10-13T02:06:07;14.40;99.90
15749;DHT22;7976;52.526;13.326;2023-10-13T02:08:36;14.40;99.90
15749;DHT22;7976;52.526;13.326;2023-10-13T02:11:10;14.40;99.90
15749;DHT22;7976;52.526;13.326;2023-10-13T02:13:37;14.40;99.90
15749;DHT22;7976;52.526;13.326;2023-10-13T02:16:08;14.40;99.90
15749;DHT22;7976;52.526;13.326;2023-10-13T02:18:35;14.40;99.90
15749;DHT22;7976;52.526;13.326;2023-10-13T02:21:10;14.40;99.90
15749;DHT22;7976;52.526;13.326;2023-10-13T02:23:38;14.40;99.90
15749;DHT22;7976;52.526;13.326;2023-10-13T02:26:11;14.30;99.90
15749;DHT22;7976;52.526;13.326;2023-10-13T02:28:38;14.30;99.90
15749;DHT22;7976;52.526;13.326;2023-10-13T02:31:06;14.40;99.90
15749;DHT22;7976;52.526;13.326;2023-10-13T02:33:32;14.40;99.90
15749;DHT22;7976;52.526;13.326;2023-10-13T02:36:02;14.40;99.90
15749;DHT22;7976;52.526;13.326;2023-10-13T02:38:30;14.40;99.90
15749;DHT22;7976;52.526;13.326;2023-10-13T02:41:11;14.40;99.90
15749;DHT22;7976;52.526;13.326;2023-10-13T02:43:37;14.40;99.90
15749;DHT22;7976;52.526;13.326;2023-10-13T02:46:04;14.40;99.90
15749;DHT22;7976;52.526;13.326;2023-10-13T02:48:31;14.40;99.90
15749;DHT22;7976;52.526;13.326;2023-10-13T02:51:06;14.40;99.90
15749;DHT22;7976;52.526;13.326;2023-10-13T02:53:41;14.40;99.90
15749;DHT22;7976;52.526;13.326;2023-10-13T02:56:14;14.40;99.90
15749;DHT22;7976;52.526;13.326;2023-10-13T02:58:47;14.40;99.90
15749;DHT22;7976;52.526;13.326;2023-10-13T03:01:19;14.40;99.90
15749;DHT22;7976;52.526;13.326;2023-10-13T03:03:48;14.40;99.90
15749;DHT22;7976;52.526;13.326;2023-10-13T03:06:20;14.40;99.90
15749;DHT22;7976;52.526;13.326;2023-10-13T03:08:51;14.40;99.90
15749;DHT22;7976;52.526;13.326;2023-10-13T03:11:19;14.40;99.90
15749;DHT22;7976;52.526;13.326;2023-10-13T03:13:48;14.40;99.90
15749;DHT22;7976;52.526;13.326;2023-10-13T03:16:18;14.40;99.90
15749;DHT22;7976;52.526;13.326;2023-10-13T03:18:46;14.50;99.90
15749;DHT22;7976;52.526;13.326;2023-10-13T03:21:22;14.40;99.90
15749;DHT22;7976;52.526;13.326;2023-10-13T03:23:59;14.50;99.90
15749;DHT22;7976;52.526;13.326;2023-10-13T03:26:33;14.50;99.90
15749;DHT22;7976;52.526;13.326;2023-10-13T03:29:03;14.50;99.90
15749;DHT22;7976;52.526;13.326;2023-10-13T03:31:34;14.50;99.90
15749;DHT22;7976;52.526;13.326;2023-10-13T03:34:04;14.50;99.90
15749;DHT22;7976;52.526;13.326;2023-10-13T03:36:35;14.60;99.90
15749;DHT22;7976;52.526;13.326;2023-10-13T03:39:16;14.60;99.90
15749;DHT22;7976;52.526;13.326;2023-10-13T03:41:44;14.60;99.90
15749;DHT22;7976;52.526;13.326;2023-10-13T03:44:18;14.50;99.90
15749;DHT22;7976;52.526;13.326;2023-10-13T03:46:48;14.50;99.90
15749;DHT22;7976;52.526;13.326;2023-10-13T03:49:17;14.50;99.90
15749;DHT22;7976;52.526;13.326;2023-10-13T03:51:47;14.50;99.90
15749;DHT22;7976;52.526;13.326;2023-10-13T03:54:15;14.50;99.90
15749;DHT22;7976;52.526;13.326;2023-10-13T03:56:47;14.50;99.90
15749;DHT22;7976;52.526;13.326;2023-10-13T03:59:18;14.50;99.90
15749;DHT22;7976;52.526;13.326;2023-10-13T04:01:45;14.50;99.90
15749;DHT22;7976;52.526;13.326;2023-10-13T04:04:24;14.60;99.90
15749;DHT22;7976;52.526;13.326;2023-10-13T04:07:00;14.60;99.90
15749;DHT22;7976;52.526;13.326;2023-10-13T04:09:59;14.50;99.90
15749;DHT22;7976;52.526;13.326;2023-10-13T04:12:53;14.50;99.90
15749;DHT22;7976;52.526;13.326;2023-10-13T04:15:38;14.50;99.90
15749;DHT22;7976;52.526;13.326;2023-10-13T04:18:09;14.60;99.90
15749;DHT22;7976;52.526;13.326;2023-10-13T04:20:59;14.60;99.90
15749;DHT22;7976;52.526;13.326;2023-10-13T04:23:44;14.60;99.90
15749;DHT22;7976;52.526;13.326;2023-10-13T04:26:25;14.60;99.90
15749;DHT22;7976;52.526;13.326;2023-10-13T04:29:03;14.60;99.90
15749;DHT22;7976;52.526;13.326;2023-10-13T04:31:36;14.60;99.90
15749;DHT22;7976;52.526;13.326;2023-10-13T04:34:22;14.60;99.90
15749;DHT22;7976;52.526;13.326;2023-10-13T04:36:54;14.70;99.90
15749;DHT22;7976;52.526;13.326;2023-10-13T04:39:37;14.70;99.90
15749;DHT22;7976;52.526;13.326;2023-10-13T04:42:05;14.70;99.90
15749;DHT22;7976;52.526;13.326;2023-10-13T04:44:53;14.70;99.90
15749;DHT22;7976;52.526;13.326;2023-10-13T04:47:26;14.70;99.90
15749;DHT22;7976;52.526;13.326;2023-10-13T04:49:54;14.70;99.90
15749;DHT22;7976;52.526;13.326;2023-10-13T04:52:26;14.70;99.90
15749;DHT22;7976;52.526;13.326;2023-10-13T04:55:09;14.70;99.90
15749;DHT22;7976;52.526;13.326;2023-10-13T04:57:53;14.70;99.90
15749;DHT22;7976;52.526;13.326;2023-10-13T05:00:37;14.70;99.90
15749;DHT22;7976;52.526;13.326;2023-10-13T05:03:49;14.80;99.90
15749;DHT22;7976;52.526;13.326;2023-10-13T05:06:34;14.80;99.90
15749;DHT22;7976;52.526;13.326;2023-10-13T05:09:17;14.80;99.90
15749;DHT22;7976;52.526;13.326;2023-10-13T05:12:02;14.80;99.90
15749;DHT22;7976;52.526;13.326;2023-10-13T05:14:47;14.80;99.90
15749;DHT22;7976;52.526;13.326;2023-10-13T05:17:33;14.90;99.90
15749;DHT22;7976;52.526;13.326;2023-10-13T05:20:18;14.90;99.90
15749;DHT22;7976;52.526;13.326;2023-10-13T05:23:03;14.90;99.90
15749;DHT22;7976;52.526;13.326;2023-10-13T05:25:47;14.90;99.90
15749;DHT22;7976;52.526;13.326;2023-10-13T05:28:32;14.90;99.90
15749;DHT22;7976;52.526;13.326;2023-10-13T05:31:13;14.90;99.90
15749;DHT22;7976;52.526;13.326;2023-10-13T05:34:04;14.90;99.90
15749;DHT22;7976;52.526;13.326;2023-10-13T05:36:49;15.00;99.90
15749;DHT22;7976;52.526;13.326;2023-10-13T05:39:33;15.00;99.90
15749;DHT22;7976;52.526;13.326;2023-10-13T05:42:17;15.00;99.90
15749;DHT22;7976;52.526;13.326;2023-10-13T05:45:02;15.00;99.90
15749;DHT22;7976;52.526;13.326;2023-10-13T05:47:47;15.00;99.90
15749;DHT22;7976;52.526;13.326;2023-10-13T05:50:27;15.00;99.90
15749;DHT22;7976;52.526;13.326;2023-10-13T05:53:11;15.00;99.90
15749;DHT22;7976;52.526;13.326;2023-10-13T05:56:00;15.00;99.90
15749;DHT22;7976;52.526;13.326;2023-10-13T05:58:45;15.00;99.90
15749;DHT22;7976;52.526;13.326;2023-10-13T06:01:30;15.00;99.90
15749;DHT22;7976;52.526;13.326;2023-10-13T06:04:15;15.10;99.90
15749;DHT22;7976;52.526;13.326;2023-10-13T06:07:01;15.10;99.90
15749;DHT22;7976;52.526;13.326;2023-10-13T06:09:53;15.20;99.90
15749;DHT22;7976;52.526;13.326;2023-10-13T06:12:38;15.20;99.90
15749;DHT22;7976;52.526;13.326;2023-10-13T06:15:24;15.30;99.90
15749;DHT22;7976;52.526;13.326;2023-10-13T06:18:21;15.30;99.90
15749;DHT22;7976;52.526;13.326;2023-10-13T06:21:05;15.30;99.90
15749;DHT22;7976;52.526;13.326;2023-10-13T06:23:50;15.40;99.90
15749;DHT22;7976;52.526;13.326;2023-10-13T06:26:35;15.40;99.90
15749;DHT22;7976;52.526;13.326;2023-10-13T06:29:20;15.40;99.90
15749;DHT22;7976;52.526;13.326;2023-10-13T06:31:47;15.40;99.90
15749;DHT22;7976;52.526;13.326;2023-10-13T06:34:14;15.50;99.90
15749;DHT22;7976;52.526;13.326;2023-10-13T06:36:41;15.40;99.90
15749;DHT22;7976;52.526;13.326;2023-10-13T06:39:13;15.50;99.90
15749;DHT22;7976;52.526;13.326;2023-10-13T06:42:01;15.50;99.90
15749;DHT22;7976;52.526;13.326;2023-10-13T06:44:29;15.50;99.90
15749;DHT22;7976;52.526;13.326;2023-10-13T06:46:58;15.50;99.90
15749;DHT22;7976;52.526;13.326;2023-10-13T06:49:25;15.50;99.90
15749;DHT22;7976;52.526;13.326;2023-10-13T06:51:54;15.50;99.90
15749;DHT22;7976;52.526;13.326;2023-10-13T06:54:27;15.60;99.90
15749;DHT22;7976;52.526;13.326;2023-10-13T06:56:54;15.50;99.90
15749;DHT22;7976;52.526;13.326;2023-10-13T06:59:21;15.60;99.90
15749;DHT22;7976;52.526;13.326;2023-10-13T07:01:58;15.60;99.90
15749;DHT22;7976;52.526;13.326;2023-10-13T07:04:30;15.70;99.90
15749;DHT22;7976;52.526;13.326;2023-10-13T07:06:57;15.80;99.90
15749;DHT22;7976;52.526;13.326;2023-10-13T07:09:27;15.90;99.90
15749;DHT22;7976;52.526;13.326;2023-10-13T07:12:14;15.90;99.90
15749;DHT22;7976;52.526;13.326;2023-10-13T07:14:47;16.00;99.90
15749;DHT22;7976;52.526;13.326;2023-10-13T07:17:18;16.00;99.90
15749;DHT22;7976;52.526;13.326;2023-10-13T07:19:53;16.10;99.90
15749;DHT22;7976;52.526;13.326;2023-10-13T07:22:25;16.20;99.90
15749;DHT22;7976;52.526;13.326;2023-10-13T07:24:54;16.30;99.90
15749;DHT22;7976;52.526;13.326;2023-10-13T07:27:23;16.30;99.90
15749;DHT22;7976;52.526;13.326;2023-10-13T07:29:51;16.30;99.90
15749;DHT22;7976;52.526;13.326;2023-10-13T07:32:31;16.40;99.90
15749;DHT22;7976;52.526;13.326;2023-10-13T07:34:59;16.40;99.90
15749;DHT22;7976;52.526;13.326;2023-10-13T07:37:37;16.50;99.90
15749;DHT22;7976;52.526;13.326;2023-10-13T07:40:11;16.50;99.90
15749;DHT22;7976;52.526;13.326;2023-10-13T07:43:05;16.50;99.90
15749;DHT22;7976;52.526;13.326;2023-10-13T07:45:36;16.60;99.90
15749;DHT22;7976;52.526;13.326;2023-10-13T07:48:04;16.60;99.90
15749;DHT22;7976;52.526;13.326;2023-10-13T07:50:38;16.70;99.90
15749;DHT22;7976;52.526;13.326;2023-10-13T07:53:06;16.70;99.90
15749;DHT22;7976;52.526;13.326;2023-10-13T07:55:46;16.80;99.90
15749;DHT22;7976;52.526;13.326;2023-10-13T07:58:20;16.80;99.90
15749;DHT22;7976;52.526;13.326;2023-10-13T08:00:50;16.90;99.90
15749;DHT22;7976;52.526;13.326;2023-10-13T08:03:32;16.90;99.90
15749;DHT22;7976;52.526;13.326;2023-10-13T08:06:01;16.90;99.90
15749;DHT22;7976;52.526;13.326;2023-10-13T08:08:32;16.90;99.90
15749;DHT22;7976;52.526;13.326;2023-10-13T08:11:06;17.00;99.90
15749;DHT22;7976;52.526;13.326;2023-10-13T08:13:43;17.00;99.90
15749;DHT22;7976;52.526;13.326;2023-10-13T08:16:12;17.00;99.90
15749;DHT22;7976;52.526;13.326;2023-10-13T08:18:46;17.10;99.90
15749;DHT22;7976;52.526;13.326;2023-10-13T08:21:15;17.10;99.90
15749;DHT22;7976;52.526;13.326;2023-10-13T08:23:48;17.20;99.90
15749;DHT22;7976;52.526;13.326;2023-10-13T08:26:32;17.20;99.90
15749;DHT22;7976;52.526;13.326;2023-10-13T08:29:19;17.30;99.90
15749;DHT22;7976;52.526;13.326;2023-10-13T08:32:04;17.40;99.90
15749;DHT22;7976;52.526;13.326;2023-10-13T08:34:47;17.40;99.90
15749;DHT22;7976;52.526;13.326;2023-10-13T08:37:35;17.40;99.90
15749;DHT22;7976;52.526;13.326;2023-10-13T08:40:26;17.40;99.90
15749;DHT22;7976;52.526;13.326;2023-10-13T08:43:13;17.40;99.90
15749;DHT22;7976;52.526;13.326;2023-10-13T08:45:43;17.40;99.90
15749;DHT22;7976;52.526;13.326;2023-10-13T08:48:19;17.50;99.90
15749;DHT22;7976;52.526;13.326;2023-10-13T08:50:52;17.50;99.90
15749;DHT22;7976;52.526;13.326;2023-10-13T08:53:23;17.50;99.90
15749;DHT22;7976;52.526;13.326;2023-10-13T08:55:59;17.50;99.90
15749;DHT22;7976;52.526;13.326;2023-10-13T08:58:42;17.50;99.90
15749;DHT22;7976;52.526;13.326;2023-10-13T09:01:39;17.50;99.90
15749;DHT22;7976;52.526;13.326;2023-10-13T09:04:15;17.50;99.90
15749;DHT22;7976;52.526;13.326;2023-10-13T09:06:55;17.50;99.90
15749;DHT22;7976;52.526;13.326;2023-10-13T09:09:45;17.50;99.90
15749;DHT22;7976;52.526;13.326;2023-10-13T09:12:27;17.50;99.90
15749;DHT22;7976;52.526;13.326;2023-10-13T09:15:08;17.60;99.90
15749;DHT22;7976;52.526;13.326;2023-10-13T09:17:47;17.60;99.90
15749;DHT22;7976;52.526;13.326;2023-10-13T09:20:19;17.60;99.90
15749;DHT22;7976;52.526;13.326;2023-10-13T09:23:08;17.60;99.90
15749;DHT22;7976;52.526;13.326;2023-10-13T09:25:40;17.60;99.90
15749;DHT22;7976;52.526;13.326;2023-10-13T09:28:20;17.50;99.90
15749;DHT22;7976;52.526;13.326;2023-10-13T09:30:54;17.60;99.90
15749;DHT22;7976;52.526;13.326;2023-10-13T09:33:23;17.60;99.90
15749;DHT22;7976;52.526;13.326;2023-10-13T09:35:58;17.60;99.90
15749;DHT22;7976;52.526;13.326;2023-10-13T09:38:25;17.60;99.90
15749;DHT22;7976;52.526;13.326;2023-10-13T09:40:54;17.60;99.90
15749;DHT22;7976;52.526;13.326;2023-10-13T09:43:23;17.60;99.90
15749;DHT22;7976;52.526;13.326;2023-10-13T09:46:00;17.60;99.90
15749;DHT22;7976;52.526;13.326;2023-10-13T09:48:33;17.60;99.90
15749;DHT22;7976;52.526;13.326;2023-10-13T09:51:11;17.60;99.90
15749;DHT22;7976;52.526;13.326;2023-10-13T09:53:39;17.50;99.90
15749;DHT22;7976;52.526;13.326;2023-10-13T09:56:13;17.50;99.90
15749;DHT22;7976;52.526;13.326;2023-10-13T09:58:51;17.40;99.90
15749;DHT22;7976;52.526;13.326;2023-10-13T10:01:25;17.40;99.90
15749;DHT22;7976;52.526;13.326;2023-10-13T10:04:07;17.40;99.90
15749;DHT22;7976;52.526;13.326;2023-10-13T10:06:36;17.40;99.90
15749;DHT22;7976;52.526;13.326;2023-10-13T10:09:11;17.40;99.90
15749;DHT22;7976;52.526;13.326;2023-10-13T10:12:13;17.50;99.90
15749;DHT22;7976;52.526;13.326;2023-10-13T10:15:07;17.50;99.90
15749;DHT22;7976;52.526;13.326;2023-10-13T10:17:55;17.50;99.90
15749;DHT22;7976;52.526;13.326;2023-10-13T10:20:28;17.50;99.90
15749;DHT22;7976;52.526;13.326;2023-10-13T10:23:08;17.50;99.90
15749;DHT22;7976;52.526;13.326;2023-10-13T10:25:38;17.50;99.90
15749;DHT22;7976;52.526;13.326;2023-10-13T10:28:10;17.50;99.90
15749;DHT22;7976;52.526;13.326;2023-10-13T10:30:42;17.50;99.90
15749;DHT22;7976;52.526;13.326;2023-10-13T10:33:12;17.50;99.90
15749;DHT22;7976;52.526;13.326;2023-10-13T10:35:41;17.50;99.90
15749;DHT22;7976;52.526;13.326;2023-10-13T10:38:12;17.50;99.90
15749;DHT22;7976;52.526;13.326;2023-10-13T10:40:51;17.50;99.90
15749;DHT22;7976;52.526;13.326;2023-10-13T10:43:24;17.50;99.90
15749;DHT22;7976;52.526;13.326;2023-10-13T10:45:54;17.50;99.90
15749;DHT22;7976;52.526;13.326;2023-10-13T10:48:27;17.50;99.90
15749;DHT22;7976;52.526;13.326;2023-10-13T10:51:03;17.40;99.90
15749;DHT22;7976;52.526;13.326;2023-10-13T10:53:39;17.40;99.90
15749;DHT22;7976;52.526;13.326;2023-10-13T10:56:11;17.40;99.90
15749;DHT22;7976;52.526;13.326;2023-10-13T10:58:46;17.40;99.90
15749;DHT22;7976;52.526;13.326;2023-10-13T11:01:15;17.50;99.90
15749;DHT22;7976;52.526;13.326;2023-10-13T11:03:58;17.50;99.90
15749;DHT22;7976;52.526;13.326;2023-10-13T11:06:34;17.50;99.90
15749;DHT22;7976;52.526;13.326;2023-10-13T11:09:08;17.50;99.90
15749;DHT22;7976;52.526;13.326;2023-10-13T11:11:45;17.50;99.90
15749;DHT22;7976;52.526;13.326;2023-10-13T11:14:22;17.60;99.90
15749;DHT22;7976;52.526;13.326;2023-10-13T11:16:50;17.60;99.90
15749;DHT22;7976;52.526;13.326;2023-10-13T11:19:20;17.60;99.90
15749;DHT22;7976;52.526;13.326;2023-10-13T11:21:53;17.60;99.90
15749;DHT22;7976;52.526;13.326;2023-10-13T11:24:21;17.70;99.90
15749;DHT22;7976;52.526;13.326;2023-10-13T11:26:49;17.70;99.90
15749;DHT22;7976;52.526;13.326;2023-10-13T11:29:18;17.70;99.90
15749;DHT22;7976;52.526;13.326;2023-10-13T11:31:48;17.80;99.90
15749;DHT22;7976;52.526;13.326;2023-10-13T11:34:25;17.80;99.90
15749;DHT22;7976;52.526;13.326;2023-10-13T11:37:05;17.90;99.90
15749;DHT22;7976;52.526;13.326;2023-10-13T11:39:46;17.90;99.90
15749;DHT22;7976;52.526;13.326;2023-10-13T11:42:14;17.90;99.90
15749;DHT22;7976;52.526;13.326;2023-10-13T11:44:42;17.80;99.90
15749;DHT22;7976;52.526;13.326;2023-10-13T11:47:10;17.90;99.90
15749;DHT22;7976;52.526;13.326;2023-10-13T11:49:56;17.90;99.90
15749;DHT22;7976;52.526;13.326;2023-10-13T11:52:24;17.90;99.90
15749;DHT22;7976;52.526;13.326;2023-10-13T11:54:54;18.00;99.90
15749;DHT22;7976;52.526;13.326;2023-10-13T11:57:21;18.00;99.90
15749;DHT22;7976;52.526;13.326;2023-10-13T11:59:53;18.00;99.90
15749;DHT22;7976;52.526;13.326;2023-10-13T12:02:42;18.00;99.90
15749;DHT22;7976;52.526;13.326;2023-10-13T12:05:28;18.10;99.90
15749;DHT22;7976;52.526;13.326;2023-10-13T12:08:14;18.20;99.90
15749;DHT22;7976;52.526;13.326;2023-10-13T12:10:48;18.20;99.90
15749;DHT22;7976;52.526;13.326;2023-10-13T12:13:25;18.30;99.90
15749;DHT22;7976;52.526;13.326;2023-10-13T12:15:54;18.30;99.90
15749;DHT22;7976;52.526;13.326;2023-10-13T12:18:22;18.30;99.90
15749;DHT22;7976;52.526;13.326;2023-10-13T12:20:54;18.30;99.90
15749;DHT22;7976;52.526;13.326;2023-10-13T12:23:22;18.30;99.90
15749;DHT22;7976;52.526;13.326;2023-10-13T12:25:57;18.40;99.90
15749;DHT22;7976;52.526;13.326;2023-10-13T12:28:25;18.40;99.90
15749;DHT22;7976;52.526;13.326;2023-10-13T12:30:55;18.40;99.90
15749;DHT22;7976;52.526;13.326;2023-10-13T12:33:25;18.50;99.90
15749;DHT22;7976;52.526;13.326;2023-10-13T12:35:59;18.50;99.90
15749;DHT22;7976;52.526;13.326;2023-10-13T12:38:40;18.50;99.90
15749;DHT22;7976;52.526;13.326;2023-10-13T12:41:34;18.60;99.90
15749;DHT22;7976;52.526;13.326;2023-10-13T12:44:18;18.60;99.90
15749;DHT22;7976;52.526;13.326;2023-10-13T12:47:03;18.70;99.90
15749;DHT22;7976;52.526;13.326;2023-10-13T12:49:47;18.70;99.90
15749;DHT22;7976;52.526;13.326;2023-10-13T12:52:33;18.80;99.90
15749;DHT22;7976;52.526;13.326;2023-10-13T12:55:00;18.80;99.90
15749;DHT22;7976;52.526;13.326;2023-10-13T12:57:35;18.90;99.90
15749;DHT22;7976;52.526;13.326;2023-10-13T13:00:10;18.90;99.90
15749;DHT22;7976;52.526;13.326;2023-10-13T13:02:49;19.00;99.90
15749;DHT22;7976;52.526;13.326;2023-10-13T13:05:21;19.00;99.90
15749;DHT22;7976;52.526;13.326;2023-10-13T13:07:55;19.00;99.90
15749;DHT22;7976;52.526;13.326;2023-10-13T13:10:22;19.00;99.90
15749;DHT22;7976;52.526;13.326;2023-10-13T13:13:04;19.10;99.90
15749;DHT22;7976;52.526;13.326;2023-10-13T13:15:33;19.10;99.90
15749;DHT22;7976;52.526;13.326;2023-10-13T13:18:00;19.20;99.90
15749;DHT22;7976;52.526;13.326;2023-10-13T13:20:36;19.20;99.90
15749;DHT22;7976;52.526;13.326;2023-10-13T13:23:06;19.30;99.90
15749;DHT22;7976;52.526;13.326;2023-10-13T13:25:33;19.40;99.90
15749;DHT22;7976;52.526;13.326;2023-10-13T13:28:08;19.40;99.90
15749;DHT22;7976;52.526;13.326;2023-10-13T13:30:37;19.40;99.90
15749;DHT22;7976;52.526;13.326;2023-10-13T13:33:04;19.50;99.90
15749;DHT22;7976;52.526;13.326;2023-10-13T13:35:37;19.50;99.90
15749;DHT22;7976;52.526;13.326;2023-10-13T13:38:06;19.60;99.90
15749;DHT22;7976;52.526;13.326;2023-10-13T13:40:42;19.60;99.90
15749;DHT22;7976;52.526;13.326;2023-10-13T13:43:14;19.70;99.90
15749;DHT22;7976;52.526;13.326;2023-10-13T13:45:58;19.80;99.90
15749;DHT22;7976;52.526;13.326;2023-10-13T13:48:26;19.80;99.90
15749;DHT22;7976;52.526;13.326;2023-10-13T13:50:54;19.90;99.90
15749;DHT22;7976;52.526;13.326;2023-10-13T13:53:31;19.90;99.90
15749;DHT22;7976;52.526;13.326;2023-10-13T13:56:01;19.90;99.90
15749;DHT22;7976;52.526;13.326;2023-10-13T13:58:29;19.90;99.90
15749;DHT22;7976;52.526;13.326;2023-10-13T14:01:00;19.90;99.90
15749;DHT22;7976;52.526;13.326;2023-10-13T14:03:40;19.90;99.90
15749;DHT22;7976;52.526;13.326;2023-10-13T14:06:12;20.00;99.90
15749;DHT22;7976;52.526;13.326;2023-10-13T14:08:45;20.00;99.90
15749;DHT22;7976;52.526;13.326;2023-10-13T14:11:15;20.10;99.90
15749;DHT22;7976;52.526;13.326;2023-10-13T14:13:57;20.20;99.90
15749;DHT22;7976;52.526;13.326;2023-10-13T14:16:30;20.30;99.90
15749;DHT22;7976;52.526;13.326;2023-10-13T14:18:59;20.20;99.90
15749;DHT22;7976;52.526;13.326;2023-10-13T14:21:28;20.30;99.90
15749;DHT22;7976;52.526;13.326;2023-10-13T14:24:02;20.30;99.90
15749;DHT22;7976;52.526;13.326;2023-10-13T14:26:38;20.30;99.90
15749;DHT22;7976;52.526;13.326;2023-10-13T14:29:09;20.30;99.90
15749;DHT22;7976;52.526;13.326;2023-10-13T14:31:43;20.30;99.90
15749;DHT22;7976;52.526;13.326;2023-10-13T14:34:09;20.30;99.90
15749;DHT22;7976;52.526;13.326;2023-10-13T14:36:39;20.30;99.90
15749;DHT22;7976;52.526;13.326;2023-10-13T14:39:15;20.30;99.90
15749;DHT22;7976;52.526;13.326;2023-10-13T14:41:44;20.30;99.90
15749;DHT22;7976;52.526;13.326;2023-10-13T14:44:13;20.30;99.90
15749;DHT22;7976;52.526;13.326;2023-10-13T14:46:40;20.30;99.90
15749;DHT22;7976;52.526;13.326;2023-10-13T14:49:08;20.30;99.90
15749;DHT22;7976;52.526;13.326;2023-10-13T14:51:35;20.30;99.90
15749;DHT22;7976;52.526;13.326;2023-10-13T14:54:05;20.30;99.90
15749;DHT22;7976;52.526;13.326;2023-10-13T14:56:33;20.30;99.90
15749;DHT22;7976;52.526;13.326;2023-10-13T14:59:00;20.30;99.90
15749;DHT22;7976;52.526;13.326;2023-10-13T15:01:30;20.30;99.90
15749;DHT22;7976;52.526;13.326;2023-10-13T15:03:57;20.30;99.90
15749;DHT22;7976;52.526;13.326;2023-10-13T15:06:25;20.30;99.90
15749;DHT22;7976;52.526;13.326;2023-10-13T15:08:55;20.30;99.90
15749;DHT22;7976;52.526;13.326;2023-10-13T15:11:24;20.30;99.90
15749;DHT22;7976;52.526;13.326;2023-10-13T15:13:54;20.30;99.90
15749;DHT22;7976;52.526;13.326;2023-10-13T15:16:24;20.30;99.90
15749;DHT22;7976;52.526;13.326;2023-10-13T15:18:54;20.30;99.90
15749;DHT22;7976;52.526;13.326;2023-10-13T15:21:22;20.30;99.90
15749;DHT22;7976;52.526;13.326;2023-10-13T15:23:54;20.20;99.90
15749;DHT22;7976;52.526;13.326;2023-10-13T15:26:25;20.30;99.90
15749;DHT22;7976;52.526;13.326;2023-10-13T15:28:53;20.20;99.90
15749;DHT22;7976;52.526;13.326;2023-10-13T15:31:21;20.20;99.90
15749;DHT22;7976;52.526;13.326;2023-10-13T15:34:04;20.20;99.90
15749;DHT22;7976;52.526;13.326;2023-10-13T15:36:39;20.20;99.90
15749;DHT22;7976;52.526;13.326;2023-10-13T15:39:06;20.20;99.90
15749;DHT22;7976;52.526;13.326;2023-10-13T15:41:37;20.20;99.90
15749;DHT22;7976;52.526;13.326;2023-10-13T15:44:06;20.20;99.90
15749;DHT22;7976;52.526;13.326;2023-10-13T15:46:41;20.20;99.90
15749;DHT22;7976;52.526;13.326;2023-10-13T15:49:12;20.20;99.90
15749;DHT22;7976;52.526;13.326;2023-10-13T15:51:40;20.10;99.90
15749;DHT22;7976;52.526;13.326;2023-10-13T15:54:07;20.10;99.90
15749;DHT22;7976;52.526;13.326;2023-10-13T15:56:40;20.10;99.90
15749;DHT22;7976;52.526;13.326;2023-10-13T15:59:13;20.10;99.90
15749;DHT22;7976;52.526;13.326;2023-10-13T16:01:41;20.10;99.90
15749;DHT22;7976;52.526;13.326;2023-10-13T16:04:12;20.00;99.90
15749;DHT22;7976;52.526;13.326;2023-10-13T16:06:39;20.00;99.90
15749;DHT22;7976;52.526;13.326;2023-10-13T16:09:07;20.00;99.90
15749;DHT22;7976;52.526;13.326;2023-10-13T16:11:41;20.00;99.90
15749;DHT22;7976;52.526;13.326;2023-10-13T16:14:10;19.90;99.90